METAR Data
IDs: Format: Raw Decoded Include TAF

Data at: 1803 UTC 21 Sep 2018

KHOU 211753Z 17009KT 10SM SCT030 BKN210 32/24 A2994 RMK AO2 SLP141 60000 T03170244 10328 20272 58010
KHOU 211653Z 14010KT 10SM SCT025 SCT140 BKN210 31/25 A2997 RMK AO2 RAE01 SLP151 P0000 T03110250
KHOU 211553Z 18006KT 10SM -RA SCT025 SCT080 OVC240 29/22 A2997 RMK AO2 LTG DSNT S RAB51 SLP151 P0000 T02890217
KHOU 211453Z 14006KT 10SM FEW020 SCT140 BKN200 30/26 A2997 RMK AO2 SLP151 60000 T03000256 51007
KHOU 211353Z 13004KT 10SM SCT090 BKN140 28/26 A2996 RMK AO2 RAE15 SLP149 P0000 T02830256
KHOU 211253Z 12005KT 10SM -RA FEW030 SCT065 BKN140 OVC250 28/25 A2996 RMK AO2 RAB26 SLP148 P0000 T02780250
KHOU 211153Z 13004KT 10SM FEW015 BKN150 OVC200 27/24 A2995 RMK AO2 SLP145 T02720244 10278 20272 53009
KHOU 211053Z 14003KT 10SM FEW020 BKN160 BKN250 27/24 A2994 RMK AO2 SLP142 T02720244
KHOU 210953Z 15004KT 10SM FEW020 BKN160 BKN250 27/24 A2993 RMK AO2 SLP138 T02720244
KHOU 210853Z 15005KT 10SM FEW020 SCT120 BKN170 BKN250 27/24 A2992 RMK AO2 SLP135 T02720244 56012
KHOU 210753Z 15005KT 10SM FEW020 BKN160 BKN250 27/24 A2992 RMK AO2 SLP137 T02720244
KHOU 210653Z 16006KT 10SM FEW020 BKN160 BKN250 27/24 A2994 RMK AO2 SLP143 T02720244
KHOU 210553Z 16004KT 10SM FEW020 BKN160 BKN250 28/24 A2996 RMK AO2 SLP147 T02780244 10294 20272 403280250 58000
KHOU 210453Z 17004KT 10SM FEW020 SCT180 BKN250 28/24 A2996 RMK AO2 SLP149 T02780239
KHOU 210353Z 14007KT 10SM FEW020 SCT160 BKN200 BKN240 28/23 A2996 RMK AO2 SLP148 T02780233
KHOU 210253Z 14004KT 10SM FEW025 BKN240 28/23 A2996 RMK AO2 SLP147 T02780233 53013
KHOU 210153Z 15006KT 10SM FEW025 SCT180 BKN250 28/23 A2994 RMK AO2 SLP143 T02780233
KHOU 210053Z 16007KT 10SM FEW040 SCT180 BKN250 28/23 A2992 RMK AO2 SLP135 T02830233
KHOU 202353Z 15010KT 10SM FEW050 BKN180 BKN250 29/23 A2992 RMK AO2 SLP135 T02940233 10328 20294 53005
KHOU 202253Z 15011KT 10SM FEW045 SCT080 BKN180 BKN250 31/23 A2991 RMK AO2 LTG DSNT NW SLP131 T03060228
KHOU 202153Z 16009KT 10SM SCT045 SCT085 SCT250 32/22 A2990 RMK AO2 SLP128 T03170217
KHOU 202053Z 14010G16KT 10SM FEW033 SCT043 SCT080 BKN250 32/22 A2990 RMK AO2 LTG DSNT N SLP130 T03220222 56019
KHOU 201953Z 15011KT 10SM SCT030 BKN250 31/23 A2992 RMK AO2 LTG DSNT N AND NW SLP135 T03110233
KHOU 201853Z 21005KT 10SM SCT030 BKN200 BKN300 29/24 A2994 RMK AO2 LTG DSNT W SLP144 TSE40 DSPTD TCU SHRA SW-W MOV N T02940239
KHOU 201843Z 20007KT 10SM SCT030 BKN250 30/23 A2995 RMK AO2 LTG DSNT N AND W TSE40 DSPTD TCU SHRA SW-W T03000233
KHOU 201753Z 14010KT 10SM TS SCT040CB BKN250 32/22 A2996 RMK AO2 LTG DSNT N AND SW TSB51 SLP149 TS SW MOV N OCNL LTGIC SW T03170222 10322 20256 58005
KHOU 201653Z 16008KT 10SM SCT030TCU BKN250 32/24 A2999 RMK AO2 LTG DSNT N SLP157 TCU NE T03170244
KHOU 201553Z 16006KT 10SM SCT030TCU BKN250 30/24 A2999 RMK AO2 SLP158 TCU ALQDS VCSH E T03000239
KHOU 201453Z 14006KT 10SM FEW020 SCT250 30/24 A2998 RMK AO2 SLP154 T03000239 52014
KHOU 201353Z 16006KT 10SM FEW020 SCT220 28/24 A2996 RMK AO2 SLP151 T02830244
KHOU 201253Z 12003KT 7SM FEW015 SCT220 27/24 A2995 RMK AO2 SLP145 T02670239
KHOU 201153Z 13003KT 10SM FEW015 BKN220 26/24 A2993 RMK AO2 SLP141 T02560239 10261 20250 55001
KHOU 201053Z 00000KT 10SM FEW020 FEW180 BKN250 26/24 A2993 RMK AO2 SLP138 T02560239
KHOU 200953Z 11003KT 10SM FEW020 SCT150 BKN250 26/24 A2993 RMK AO2 SLP139 T02610239
KHOU 200853Z 12003KT 10SM FEW020 SCT150 BKN250 26/23 A2994 RMK AO2 SLP141 T02560233 58006
KHOU 200753Z 00000KT 10SM FEW020 SCT150 BKN250 26/23 A2995 RMK AO2 SLP144 T02560233
KHOU 200653Z 00000KT 10SM FEW250 26/23 A2995 RMK AO2 SLP146 T02610233